Time;durP1;ratioP1;P1;durP2;ratioP2;P2;SDS_P1;SDS_P2;PMS_P1;PMS_P2;Temp;Humidity;BMP_temperature;BMP_pressure;BME280_temperature;BME280_humidity;BME280_pressure;Samples;Min_cycle;Max_cycle;Signal;HPM_P1;HPM_P2
2024/03/02 00:00:11;;;;;;;1999.90;999.90;;;9.40;99.90;;;;;;5054208;28;20026;-79
2024/03/02 00:02:44;;;;;;;1999.90;999.90;;;9.30;99.90;;;;;;5053705;28;20025;-81
2024/03/02 00:05:14;;;;;;;1999.90;999.90;;;9.30;99.90;;;;;;5053984;28;20111;-81
2024/03/02 00:07:52;;;;;;;1999.90;999.90;;;9.40;99.90;;;;;;5053572;28;20064;-79
2024/03/02 00:10:21;;;;;;;1999.90;999.90;;;9.40;99.90;;;;;;5051991;28;20086;-79
2024/03/02 00:12:48;;;;;;;1999.90;999.90;;;9.30;99.90;;;;;;5055271;28;20071;-79
2024/03/02 00:15:36;;;;;;;1999.90;999.90;;;9.30;99.90;;;;;;5057690;28;20033;-78
2024/03/02 00:18:02;;;;;;;1999.90;999.90;;;9.40;99.90;;;;;;5052987;28;20403;-79
2024/03/02 00:20:28;;;;;;;1999.90;999.90;;;9.40;99.90;;;;;;5055455;28;20028;-79
2024/03/02 00:23:03;;;;;;;1999.90;999.90;;;9.40;99.90;;;;;;5052219;28;20029;-79
2024/03/02 00:25:41;;;;;;;1999.90;999.90;;;9.30;99.90;;;;;;5054149;28;20029;-80
2024/03/02 00:28:16;;;;;;;1999.90;999.90;;;9.30;99.90;;;;;;5053960;28;20028;-80
2024/03/02 00:31:06;;;;;;;1999.90;999.90;;;9.30;99.90;;;;;;5052527;28;20052;-82
2024/03/02 00:33:34;;;;;;;1999.90;999.90;;;9.30;99.90;;;;;;5053710;28;20021;-79
2024/03/02 00:36:01;;;;;;;1999.90;999.90;;;9.20;99.90;;;;;;5058210;28;20052;-79
2024/03/02 00:38:28;;;;;;;1999.90;999.90;;;9.30;99.90;;;;;;5051871;28;20028;-79
2024/03/02 00:40:54;;;;;;;1999.90;999.90;;;9.20;99.90;;;;;;5055621;28;20028;-80
2024/03/02 00:43:43;;;;;;;1999.90;999.90;;;9.20;99.90;;;;;;5056223;28;20107;-79
2024/03/02 00:46:20;;;;;;;1999.90;999.90;;;9.20;99.90;;;;;;5053408;28;20116;-79
2024/03/02 00:48:57;;;;;;;1999.90;999.90;;;9.20;99.90;;;;;;5055105;28;20400;-79
2024/03/02 00:51:24;;;;;;;1999.90;999.90;;;9.20;99.90;;;;;;5051502;28;20051;-80
2024/03/02 00:53:52;;;;;;;1999.90;999.90;;;9.20;99.90;;;;;;5054303;28;20051;-79
2024/03/02 00:56:18;;;;;;;1999.90;999.90;;;9.20;99.90;;;;;;5055781;28;20033;-79
2024/03/02 00:58:44;;;;;;;1999.90;999.90;;;9.20;99.90;;;;;;5053429;28;20059;-79
2024/03/02 01:01:10;;;;;;;1999.90;999.90;;;9.20;99.90;;;;;;5054804;28;20025;-78
2024/03/02 01:03:37;;;;;;;1999.90;999.90;;;9.20;99.90;;;;;;5051925;28;20032;-78
2024/03/02 01:06:03;;;;;;;1999.90;999.90;;;9.20;99.90;;;;;;5051611;28;20057;-79
2024/03/02 01:08:28;;;;;;;1999.90;999.90;;;9.20;99.90;;;;;;5054510;28;20048;-80
2024/03/02 01:10:54;;;;;;;1999.90;999.90;;;9.30;99.90;;;;;;5051611;28;20021;-79
2024/03/02 01:13:24;;;;;;;1999.90;999.90;;;9.30;99.90;;;;;;5051786;28;20029;-80
2024/03/02 01:15:50;;;;;;;1999.90;999.90;;;9.30;99.90;;;;;;5051676;28;20032;-79
2024/03/02 01:18:16;;;;;;;1999.90;999.90;;;9.30;99.90;;;;;;5051293;28;20044;-79
2024/03/02 01:20:41;;;;;;;1999.90;999.90;;;9.30;99.90;;;;;;5060842;28;20191;-79
2024/03/02 01:23:07;;;;;;;1999.90;999.90;;;9.30;99.90;;;;;;5051565;28;20024;-79
2024/03/02 01:25:33;;;;;;;1999.90;999.90;;;9.20;99.90;;;;;;5051702;28;20055;-81
2024/03/02 01:27:58;;;;;;;1999.90;999.90;;;9.30;99.90;;;;;;5060738;28;20035;-79
2024/03/02 01:30:24;;;;;;;1999.90;999.90;;;9.30;99.90;;;;;;5052907;28;20025;-80
2024/03/02 01:32:49;;;;;;;1999.90;999.90;;;9.30;99.90;;;;;;5052780;28;20087;-79
2024/03/02 01:35:15;;;;;;;1999.90;999.90;;;9.20;99.90;;;;;;5053704;28;20021;-79
2024/03/02 01:37:41;;;;;;;1999.90;999.90;;;9.30;99.90;;;;;;5051892;28;20439;-79
2024/03/02 01:40:08;;;;;;;1999.90;999.90;;;9.20;99.90;;;;;;5053626;28;20025;-79
2024/03/02 01:42:36;;;;;;;1999.90;999.90;;;9.30;99.90;;;;;;5058433;28;20079;-79
2024/03/02 01:45:03;;;;;;;1999.90;999.90;;;9.20;99.90;;;;;;5056544;28;20074;-79
2024/03/02 01:47:29;;;;;;;1999.90;999.90;;;9.00;99.90;;;;;;5064127;28;20077;-79
2024/03/02 01:49:54;;;;;;;1999.90;999.90;;;8.20;99.90;;;;;;5056274;28;20060;-80
2024/03/02 01:52:20;;;;;;;1999.90;999.90;;;7.60;99.90;;;;;;5054884;28;20051;-80
2024/03/02 01:54:46;;;;;;;1999.90;999.90;;;7.40;99.90;;;;;;5056708;28;20028;-80
2024/03/02 01:57:11;;;;;;;1999.90;999.90;;;7.30;99.90;;;;;;5056047;28;20060;-80
2024/03/02 01:59:37;;;;;;;1999.90;999.90;;;7.30;99.90;;;;;;5054496;28;20492;-81
2024/03/02 02:02:02;;;;;;;1999.90;999.90;;;7.20;99.90;;;;;;5058842;28;20065;-80
2024/03/02 02:04:28;;;;;;;1999.90;999.90;;;7.20;99.90;;;;;;5055845;28;20018;-81
2024/03/02 02:06:54;;;;;;;1999.90;999.90;;;7.20;99.90;;;;;;5064138;28;20027;-81
2024/03/02 02:09:20;;;;;;;1999.90;999.90;;;7.30;99.90;;;;;;5067644;28;20029;-81
2024/03/02 02:11:46;;;;;;;1999.90;999.90;;;7.30;99.90;;;;;;5054618;28;20482;-81
2024/03/02 02:14:11;;;;;;;1999.90;999.90;;;7.40;99.90;;;;;;5055356;28;20025;-81
2024/03/02 02:16:37;;;;;;;1999.90;999.90;;;7.50;99.90;;;;;;5056154;28;20568;-81
2024/03/02 02:19:03;;;;;;;1999.90;999.90;;;7.60;99.90;;;;;;5055673;28;20422;-81
2024/03/02 02:21:28;;;;;;;1999.90;999.90;;;7.50;99.90;;;;;;5056583;28;20167;-81
2024/03/02 02:23:54;;;;;;;1999.90;999.90;;;7.50;99.90;;;;;;5055621;28;20075;-80
2024/03/02 02:26:20;;;;;;;1999.90;999.90;;;7.60;99.90;;;;;;5054411;28;20048;-80
2024/03/02 02:28:48;;;;;;;1999.90;999.90;;;7.70;99.90;;;;;;5061031;28;20040;-81
2024/03/02 02:31:14;;;;;;;1999.90;999.90;;;7.80;99.90;;;;;;5054669;28;20095;-81
2024/03/02 02:33:43;;;;;;;1999.90;999.90;;;7.80;99.90;;;;;;5055724;28;20025;-81
2024/03/02 02:36:10;;;;;;;1999.90;999.90;;;7.80;99.90;;;;;;5057204;28;20108;-81
2024/03/02 02:38:40;;;;;;;1999.90;999.90;;;7.80;99.90;;;;;;5054119;28;20040;-81
2024/03/02 02:41:05;;;;;;;1999.90;999.90;;;7.90;99.90;;;;;;5055719;28;20055;-80
2024/03/02 02:43:31;;;;;;;1999.90;999.90;;;7.90;99.90;;;;;;5055425;28;20025;-81
2024/03/02 02:45:57;;;;;;;1999.90;999.90;;;8.00;99.90;;;;;;5053924;28;20036;-81
2024/03/02 02:48:22;;;;;;;1999.90;999.90;;;8.10;99.90;;;;;;5059028;28;20063;-81
2024/03/02 02:50:48;;;;;;;1999.90;999.90;;;8.20;99.90;;;;;;5054507;28;20501;-80
2024/03/02 02:53:14;;;;;;;1999.90;999.90;;;8.50;99.90;;;;;;5054621;28;20104;-80
2024/03/02 02:55:40;;;;;;;1999.90;999.90;;;8.80;99.90;;;;;;5056685;28;20372;-81
2024/03/02 02:58:12;;;;;;;1999.90;999.90;;;8.90;99.90;;;;;;5054030;28;20505;-80
2024/03/02 03:00:38;;;;;;;1999.90;999.90;;;9.10;99.90;;;;;;5055430;28;20021;-80
2024/03/02 03:03:04;;;;;;;1999.90;999.90;;;9.10;99.90;;;;;;5053544;28;20399;-80
2024/03/02 03:05:30;;;;;;;1999.90;999.90;;;9.10;99.90;;;;;;5053562;28;20041;-80
2024/03/02 03:07:56;;;;;;;1999.90;999.90;;;9.10;99.90;;;;;;5059176;28;20048;-80
2024/03/02 03:10:23;;;;;;;1999.90;999.90;;;9.20;99.90;;;;;;5054953;28;20499;-80
2024/03/02 03:12:49;;;;;;;1999.90;999.90;;;9.20;99.90;;;;;;5054768;28;20032;-80
2024/03/02 03:15:16;;;;;;;1999.90;999.90;;;9.30;99.90;;;;;;5067668;28;20112;-80
2024/03/02 03:17:42;;;;;;;1999.90;999.90;;;9.40;99.90;;;;;;5052826;28;20106;-80
2024/03/02 03:20:12;;;;;;;1999.90;999.90;;;9.40;99.90;;;;;;5053113;28;20029;-81
2024/03/02 03:22:38;;;;;;;1999.90;999.90;;;9.40;99.90;;;;;;5062387;28;20025;-80
2024/03/02 03:25:05;;;;;;;1999.90;999.90;;;9.40;99.90;;;;;;5053073;28;20033;-80
2024/03/02 03:27:30;;;;;;;1999.90;999.90;;;9.50;99.90;;;;;;5053268;28;20029;-81
2024/03/02 03:29:56;;;;;;;1999.90;999.90;;;9.50;99.90;;;;;;5053985;28;20562;-80
2024/03/02 03:32:22;;;;;;;1999.90;999.90;;;9.50;99.90;;;;;;5053142;28;20072;-81
2024/03/02 03:34:48;;;;;;;1999.90;999.90;;;9.50;99.90;;;;;;5061065;28;20042;-80
2024/03/02 03:37:14;;;;;;;1999.90;999.90;;;9.50;99.90;;;;;;5056445;28;20028;-81
2024/03/02 03:39:40;;;;;;;1999.90;999.90;;;9.70;99.90;;;;;;5052997;28;20040;-81
2024/03/02 03:42:06;;;;;;;1999.90;999.90;;;9.80;99.90;;;;;;5061417;28;20073;-81
2024/03/02 03:44:33;;;;;;;1999.90;999.90;;;9.90;99.90;;;;;;5058871;28;20059;-80
2024/03/02 03:47:02;;;;;;;1999.90;999.90;;;9.90;99.90;;;;;;5052874;28;20403;-82
2024/03/02 03:49:28;;;;;;;1999.90;999.90;;;9.90;99.90;;;;;;5057928;28;20043;-79
2024/03/02 03:51:53;;;;;;;1999.90;999.90;;;10.00;99.90;;;;;;5058252;28;20418;-79
2024/03/02 03:54:19;;;;;;;1999.90;999.90;;;10.00;99.90;;;;;;5051895;28;20032;-82
2024/03/02 03:56:45;;;;;;;1999.90;999.90;;;10.00;99.90;;;;;;5054996;28;20569;-80
2024/03/02 03:59:10;;;;;;;1999.90;999.90;;;10.00;99.90;;;;;;5054113;28;20025;-80
2024/03/02 04:01:37;;;;;;;1999.90;999.90;;;10.00;99.90;;;;;;5052884;28;20021;-80
2024/03/02 04:04:03;;;;;;;1999.90;999.90;;;10.00;99.90;;;;;;5059199;28;20041;-80
2024/03/02 04:06:32;;;;;;;1999.90;999.90;;;10.10;99.90;;;;;;5053770;28;20112;-80
2024/03/02 04:08:58;;;;;;;1999.90;999.90;;;10.20;99.90;;;;;;5052432;28;20029;-81
2024/03/02 04:11:24;;;;;;;1999.90;999.90;;;10.20;99.90;;;;;;5065599;28;20040;-80
2024/03/02 04:13:49;;;;;;;1999.90;999.90;;;10.30;99.90;;;;;;5052247;28;20033;-81
2024/03/02 04:16:15;;;;;;;1999.90;999.90;;;10.30;99.90;;;;;;5051159;28;20017;-82
2024/03/02 04:18:41;;;;;;;1999.90;999.90;;;10.30;99.90;;;;;;5057820;28;20515;-81
2024/03/02 04:21:06;;;;;;;1999.90;999.90;;;10.30;99.90;;;;;;5052358;28;20544;-80
2024/03/02 04:23:33;;;;;;;1999.90;999.90;;;10.30;99.90;;;;;;5052066;28;20108;-80
2024/03/02 04:25:58;;;;;;;1999.90;999.90;;;10.20;99.90;;;;;;5055088;28;20483;-80
2024/03/02 04:28:24;;;;;;;1999.90;999.90;;;10.10;99.90;;;;;;5053276;28;20025;-80
2024/03/02 04:30:49;;;;;;;1999.90;999.90;;;10.00;99.90;;;;;;5055908;28;20105;-79
2024/03/02 04:33:15;;;;;;;1999.90;999.90;;;10.00;99.90;;;;;;5055081;28;20468;-80
2024/03/02 04:35:41;;;;;;;1999.90;999.90;;;10.00;99.90;;;;;;5052048;28;20131;-80
2024/03/02 04:38:06;;;;;;;1999.90;999.90;;;10.00;99.90;;;;;;5054870;28;20475;-82
2024/03/02 04:40:32;;;;;;;1999.90;999.90;;;10.00;99.90;;;;;;5052133;28;20373;-80
2024/03/02 04:43:00;;;;;;;1999.90;999.90;;;10.00;99.90;;;;;;5053012;28;20082;-80
2024/03/02 04:45:26;;;;;;;1999.90;999.90;;;10.00;99.90;;;;;;5067645;28;20088;-79
2024/03/02 04:47:52;;;;;;;1999.90;999.90;;;9.90;99.90;;;;;;5052019;28;20072;-80
2024/03/02 04:50:17;;;;;;;1999.90;999.90;;;9.90;99.90;;;;;;5051880;28;20087;-80
2024/03/02 04:52:43;;;;;;;1999.90;999.90;;;9.90;99.90;;;;;;5057155;28;20071;-80
2024/03/02 04:57:54;;;;;;;1999.90;999.90;;;9.70;99.90;;;;;;5053234;28;20582;-80
2024/03/02 05:00:20;;;;;;;1999.90;999.90;;;9.70;99.90;;;;;;5059327;28;20037;-82
2024/03/02 05:02:49;;;;;;;1999.90;999.90;;;9.70;99.90;;;;;;5051677;28;20084;-80
2024/03/02 05:05:15;;;;;;;1999.90;999.90;;;9.70;99.90;;;;;;5053060;28;20082;-80
2024/03/02 05:07:44;;;;;;;1999.90;999.90;;;9.60;99.90;;;;;;5058319;28;20021;-81
2024/03/02 05:10:11;;;;;;;1999.90;999.90;;;9.60;99.90;;;;;;5051791;28;20039;-80
2024/03/02 05:15:10;;;;;;;1999.90;999.90;;;9.60;99.90;;;;;;5063782;28;20029;-80
2024/03/02 05:17:39;;;;;;;1999.90;999.90;;;9.60;99.90;;;;;;5056388;28;20057;-80
2024/03/02 05:20:07;;;;;;;1999.90;999.90;;;9.60;99.90;;;;;;5055027;28;20036;-80
2024/03/02 05:22:33;;;;;;;1999.90;999.90;;;9.60;99.90;;;;;;5056806;28;20033;-83
2024/03/02 05:25:00;;;;;;;1999.90;999.90;;;9.60;99.90;;;;;;5054784;28;20067;-80
2024/03/02 05:27:26;;;;;;;1999.90;999.90;;;9.50;99.90;;;;;;5056950;28;20487;-79
2024/03/02 05:29:52;;;;;;;1999.90;999.90;;;9.50;99.90;;;;;;5067511;28;20128;-80
2024/03/02 05:32:18;;;;;;;1999.90;999.90;;;9.50;99.90;;;;;;5055301;28;20072;-80
2024/03/02 05:34:43;;;;;;;1999.90;999.90;;;9.50;99.90;;;;;;5055261;28;20025;-81
2024/03/02 05:37:09;;;;;;;1999.90;999.90;;;9.50;99.90;;;;;;5066266;28;20028;-81
2024/03/02 05:39:35;;;;;;;1999.90;999.90;;;9.50;99.90;;;;;;5055276;28;20079;-80
2024/03/02 05:42:00;;;;;;;1999.90;999.90;;;9.50;99.90;;;;;;5055055;28;20537;-80
2024/03/02 05:44:26;;;;;;;1999.90;999.90;;;9.60;99.90;;;;;;5059624;28;20031;-81
2024/03/02 05:46:52;;;;;;;1999.90;999.90;;;9.60;99.90;;;;;;5055151;28;20036;-80
2024/03/02 05:49:18;;;;;;;1999.90;999.90;;;9.60;99.90;;;;;;5056525;28;20013;-81
2024/03/02 05:51:43;;;;;;;1999.90;999.90;;;9.60;99.90;;;;;;5061941;28;20017;-82
2024/03/02 05:54:09;;;;;;;1999.90;999.90;;;9.60;99.90;;;;;;5054851;28;20175;-81
2024/03/02 05:56:35;;;;;;;1999.90;999.90;;;9.60;99.90;;;;;;5055112;28;20029;-81
2024/03/02 05:59:13;;;;;;;1999.90;999.90;;;9.60;99.90;;;;;;5058138;28;20483;-80
2024/03/02 06:01:39;;;;;;;1999.90;999.90;;;9.60;99.90;;;;;;5054993;28;20156;-81
2024/03/02 06:04:05;;;;;;;1999.90;999.90;;;9.50;99.90;;;;;;5056068;28;20063;-81
2024/03/02 06:06:32;;;;;;;1999.90;999.90;;;9.60;99.90;;;;;;5068257;28;20083;-81
2024/03/02 06:08:58;;;;;;;1999.90;999.90;;;9.60;99.90;;;;;;5054690;28;20025;-82
2024/03/02 06:11:24;;;;;;;1999.90;999.90;;;9.60;99.90;;;;;;5055992;28;20029;-80
2024/03/02 06:13:50;;;;;;;1999.90;999.90;;;9.60;99.90;;;;;;5061206;28;20561;-81
2024/03/02 06:16:15;;;;;;;1999.90;999.90;;;9.60;99.90;;;;;;5055631;28;20025;-83
2024/03/02 06:18:41;;;;;;;1999.90;999.90;;;9.60;99.90;;;;;;5056219;28;20049;-81
2024/03/02 06:21:07;;;;;;;1999.90;999.90;;;9.50;99.90;;;;;;5057853;28;20071;-80
2024/03/02 06:23:34;;;;;;;1999.90;999.90;;;9.50;99.90;;;;;;5054777;28;20025;-80
2024/03/02 06:26:00;;;;;;;1999.90;999.90;;;9.50;99.90;;;;;;5056473;28;20041;-79
2024/03/02 06:28:26;;;;;;;1999.90;999.90;;;9.50;99.90;;;;;;5053218;28;20078;-79
2024/03/02 06:30:52;;;;;;;1999.90;999.90;;;9.50;99.90;;;;;;5054152;28;20043;-80
2024/03/02 06:33:17;;;;;;;1999.90;999.90;;;9.50;99.90;;;;;;5063603;28;20120;-81
2024/03/02 06:35:43;;;;;;;1999.90;999.90;;;9.50;99.90;;;;;;5054359;28;20017;-80
2024/03/02 06:38:09;;;;;;;1999.90;999.90;;;9.60;99.90;;;;;;5054254;28;20025;-82
2024/03/02 06:40:34;;;;;;;1999.90;999.90;;;9.60;99.90;;;;;;5061759;28;20009;-80
2024/03/02 06:43:00;;;;;;;1999.90;999.90;;;9.50;99.90;;;;;;5054815;28;20487;-80
2024/03/02 06:45:26;;;;;;;1999.90;999.90;;;9.50;99.90;;;;;;5054073;28;20033;-80
2024/03/02 06:47:52;;;;;;;1999.90;999.90;;;9.50;99.90;;;;;;5057113;28;20033;-80
2024/03/02 06:50:17;;;;;;;1999.90;999.90;;;9.50;99.90;;;;;;5055293;28;20550;-80
2024/03/02 06:52:43;;;;;;;1999.90;999.90;;;9.50;99.90;;;;;;5055109;28;20484;-80
2024/03/02 06:55:09;;;;;;;1999.90;999.90;;;9.50;99.90;;;;;;5070093;28;20016;-80
2024/03/02 06:57:35;;;;;;;1999.90;999.90;;;9.50;99.90;;;;;;5055141;28;20029;-82
2024/03/02 07:00:01;;;;;;;1999.90;999.90;;;9.60;99.90;;;;;;5053641;28;20503;-80
2024/03/02 07:02:27;;;;;;;1999.90;999.90;;;9.50;99.90;;;;;;5057733;28;20032;-79
2024/03/02 07:04:55;;;;;;;1999.90;999.90;;;9.50;99.90;;;;;;5053553;28;20032;-82
2024/03/02 07:07:21;;;;;;;1999.90;999.90;;;9.40;99.90;;;;;;5054843;28;20099;-79
2024/03/02 07:09:48;;;;;;;1999.90;999.90;;;9.40;99.90;;;;;;5067350;28;20021;-80
2024/03/02 07:12:14;;;;;;;1999.90;999.90;;;9.40;99.90;;;;;;5053462;28;20032;-79
2024/03/02 07:17:23;;;;;;;1999.90;999.90;;;9.30;99.90;;;;;;5052092;28;20518;-79
2024/03/02 07:19:49;;;;;;;1999.90;999.90;;;9.30;99.90;;;;;;5053195;28;20032;-79
2024/03/02 07:22:15;;;;;;;1999.90;999.90;;;9.20;99.90;;;;;;5054511;28;20446;-79
2024/03/02 07:24:45;;;;;;;1999.90;999.90;;;9.20;99.90;;;;;;5063822;28;20017;-79
2024/03/02 07:27:12;;;;;;;1999.90;999.90;;;9.20;99.90;;;;;;5053317;28;20087;-80
2024/03/02 07:29:38;;;;;;;1999.90;999.90;;;9.20;99.90;;;;;;5053164;28;20082;-80
2024/03/02 07:32:04;;;;;;;1999.90;999.90;;;9.20;99.90;;;;;;5059084;28;20395;-80
2024/03/02 07:34:30;;;;;;;1999.90;999.90;;;9.20;99.90;;;;;;5054598;28;20036;-81
2024/03/02 07:36:56;;;;;;;1999.90;999.90;;;9.10;99.90;;;;;;5053855;28;20021;-80
2024/03/02 07:39:22;;;;;;;1999.90;999.90;;;9.00;99.90;;;;;;5054414;28;20040;-81
2024/03/02 07:41:48;;;;;;;1999.90;999.90;;;8.90;99.90;;;;;;5052889;28;20033;-80
2024/03/02 07:44:14;;;;;;;1999.90;999.90;;;8.80;99.90;;;;;;5052833;28;20029;-80
2024/03/02 07:46:43;;;;;;;1999.90;999.90;;;8.90;99.90;;;;;;5056192;28;20422;-80
2024/03/02 07:49:09;;;;;;;1999.90;999.90;;;8.90;99.90;;;;;;5053831;28;20064;-80
2024/03/02 07:51:36;;;;;;;1999.90;999.90;;;8.90;99.90;;;;;;5059797;28;20033;-80
2024/03/02 07:54:02;;;;;;;1999.90;999.90;;;8.90;99.90;;;;;;5068927;28;20083;-81
2024/03/02 07:56:30;;;;;;;1999.90;999.90;;;8.90;99.90;;;;;;5052643;28;20059;-80
2024/03/02 07:59:00;;;;;;;1999.90;999.90;;;8.80;99.90;;;;;;5052643;28;20445;-80
2024/03/02 08:01:27;;;;;;;1999.90;999.90;;;8.80;99.90;;;;;;5055332;28;20021;-79
2024/03/02 08:03:53;;;;;;;1999.90;999.90;;;8.80;99.90;;;;;;5052483;28;20036;-81
2024/03/02 08:06:21;;;;;;;1999.90;999.90;;;8.90;99.90;;;;;;5053858;28;20499;-79
2024/03/02 08:08:47;;;;;;;1999.90;999.90;;;8.90;99.90;;;;;;5052347;28;20033;-80
2024/03/02 08:11:13;;;;;;;1999.90;999.90;;;8.90;99.90;;;;;;5052603;28;20104;-81
2024/03/02 08:13:38;;;;;;;1999.90;999.90;;;8.90;99.90;;;;;;5062758;28;20040;-80
2024/03/02 08:16:07;;;;;;;1999.90;999.90;;;8.90;99.90;;;;;;5052146;28;20020;-80
2024/03/02 08:18:33;;;;;;;1999.90;999.90;;;8.90;99.90;;;;;;5051867;28;20045;-80
2024/03/02 08:20:59;;;;;;;1999.90;999.90;;;8.90;99.90;;;;;;5058198;28;20036;-80
2024/03/02 08:23:24;;;;;;;1999.90;999.90;;;8.90;99.90;;;;;;5053454;28;20391;-81
2024/03/02 08:25:50;;;;;;;1999.90;999.90;;;8.90;99.90;;;;;;5053688;28;20035;-80
2024/03/02 08:28:15;;;;;;;1999.90;999.90;;;8.90;99.90;;;;;;5053226;28;20048;-80
2024/03/02 08:30:41;;;;;;;1999.90;999.90;;;8.90;99.90;;;;;;5052230;28;20025;-80
2024/03/02 08:33:07;;;;;;;1999.90;999.90;;;9.00;99.90;;;;;;5057146;28;20028;-79
2024/03/02 08:35:36;;;;;;;1999.90;999.90;;;9.00;99.90;;;;;;5052060;28;20024;-80
2024/03/02 08:38:02;;;;;;;1999.90;999.90;;;9.10;99.90;;;;;;5051903;28;20399;-80
2024/03/02 08:40:28;;;;;;;1999.90;999.90;;;9.30;99.90;;;;;;5056800;28;20033;-80
2024/03/02 08:42:54;;;;;;;1999.90;999.90;;;9.40;99.90;;;;;;5051959;28;20099;-80
2024/03/02 08:45:20;;;;;;;1999.90;999.90;;;9.40;99.90;;;;;;5051901;28;20123;-81
2024/03/02 08:47:46;;;;;;;1999.90;999.90;;;9.40;99.90;;;;;;5055754;28;20025;-79
2024/03/02 08:50:12;;;;;;;1999.90;999.90;;;9.50;99.90;;;;;;5051648;28;20036;-81
2024/03/02 08:52:38;;;;;;;1999.90;999.90;;;9.50;99.90;;;;;;5053308;28;20029;-80
2024/03/02 08:55:04;;;;;;;1999.90;999.90;;;9.40;99.90;;;;;;5051861;28;20052;-79
2024/03/02 08:57:30;;;;;;;1999.90;999.90;;;9.40;99.90;;;;;;5051924;28;20036;-79
2024/03/02 08:59:56;;;;;;;1999.90;999.90;;;9.30;99.90;;;;;;5060724;28;20009;-79
2024/03/02 09:02:23;;;;;;;1999.90;999.90;;;9.30;99.90;;;;;;5051728;28;20036;-80
2024/03/02 09:04:49;;;;;;;1999.90;999.90;;;9.30;99.90;;;;;;5052855;28;20017;-79
2024/03/02 09:07:15;;;;;;;1999.90;999.90;;;9.20;99.90;;;;;;5053414;28;20127;-80
2024/03/02 09:09:40;;;;;;;1999.90;999.90;;;9.20;99.90;;;;;;5051588;28;20028;-80
2024/03/02 09:12:07;;;;;;;1999.90;999.90;;;9.20;99.90;;;;;;5054689;28;20025;-80
2024/03/02 09:14:33;;;;;;;1999.90;999.90;;;9.30;99.90;;;;;;5048189;28;20432;-80
2024/03/02 09:16:59;;;;;;;1999.90;999.90;;;9.20;99.90;;;;;;5043749;28;20079;-80
2024/03/02 09:19:24;;;;;;;1999.90;999.90;;;9.30;99.90;;;;;;5059665;28;20052;-80
2024/03/02 09:21:50;;;;;;;1999.90;999.90;;;9.30;99.90;;;;;;5053064;28;20020;-80
2024/03/02 09:24:16;;;;;;;1999.90;999.90;;;9.30;99.90;;;;;;5052692;28;20105;-82
2024/03/02 09:26:41;;;;;;;1999.90;999.90;;;9.40;99.90;;;;;;5060189;28;20579;-81
2024/03/02 09:29:07;;;;;;;1999.90;999.90;;;9.50;99.90;;;;;;5051503;28;20032;-80
2024/03/02 09:31:33;;;;;;;1999.90;999.90;;;9.50;99.90;;;;;;5051478;28;20060;-80
2024/03/02 09:33:58;;;;;;;1999.90;999.90;;;9.50;99.90;;;;;;5074082;28;20013;-79
2024/03/02 09:36:24;;;;;;;1999.90;999.90;;;9.60;99.90;;;;;;5051411;28;20039;-80
2024/03/02 09:38:50;;;;;;;1999.90;999.90;;;9.60;99.90;;;;;;5052812;28;20454;-79
2024/03/02 09:41:15;;;;;;;1999.90;999.90;;;9.60;99.90;;;;;;5053008;28;20033;-79
2024/03/02 09:43:41;;;;;;;1999.90;999.90;;;9.60;99.90;;;;;;5051525;28;20546;-79
2024/03/02 09:46:10;;;;;;;1999.90;999.90;;;9.70;99.90;;;;;;5051152;28;20415;-79
2024/03/02 09:48:37;;;;;;;1999.90;999.90;;;9.80;99.90;;;;;;5057574;28;20096;-79
2024/03/02 09:51:04;;;;;;;1999.90;999.90;;;9.80;99.90;;;;;;5051364;28;20029;-79
2024/03/02 09:53:32;;;;;;;1999.90;999.90;;;9.90;99.90;;;;;;5052117;28;20032;-79
2024/03/02 09:55:59;;;;;;;1999.90;999.90;;;10.00;99.90;;;;;;5055477;28;20025;-79
2024/03/02 09:58:25;;;;;;;1999.90;999.90;;;10.00;99.90;;;;;;5051480;28;20021;-79
2024/03/02 10:00:51;;;;;;;1999.90;999.90;;;10.00;99.90;;;;;;5053725;28;20040;-79
2024/03/02 10:03:19;;;;;;;1999.90;999.90;;;9.90;99.90;;;;;;5055852;28;20036;-79
2024/03/02 10:05:45;;;;;;;1999.90;999.90;;;9.80;99.90;;;;;;5055902;28;20104;-80
2024/03/02 10:08:10;;;;;;;1999.90;999.90;;;9.90;99.90;;;;;;5057051;28;20110;-80
2024/03/02 10:10:41;;;;;;;1999.90;999.90;;;9.80;99.90;;;;;;5054627;28;20387;-80
2024/03/02 10:13:08;;;;;;;1999.90;999.90;;;9.80;99.90;;;;;;5057701;28;20028;-80
2024/03/02 10:15:34;;;;;;;1999.90;999.90;;;9.70;99.90;;;;;;5053008;28;20045;-80
2024/03/02 10:18:00;;;;;;;1999.90;999.90;;;9.60;99.90;;;;;;5054732;28;20385;-79
2024/03/02 10:20:29;;;;;;;1999.90;999.90;;;9.40;99.90;;;;;;5057898;28;20207;-80
2024/03/02 10:22:55;;;;;;;1999.90;999.90;;;9.30;99.90;;;;;;5054410;28;20036;-80
2024/03/02 10:25:34;;;;;;;1999.90;999.90;;;9.10;99.90;;;;;;5054320;28;20110;-80
2024/03/02 10:28:00;;;;;;;1999.90;999.90;;;9.10;99.90;;;;;;5058097;28;20361;-79
2024/03/02 10:30:27;;;;;;;1999.90;999.90;;;9.00;99.90;;;;;;5055515;28;20021;-80
2024/03/02 10:32:56;;;;;;;1999.90;999.90;;;9.00;99.90;;;;;;5057984;28;20009;-79
2024/03/02 10:35:25;;;;;;;1999.90;999.90;;;8.90;99.90;;;;;;5054174;28;20086;-80
2024/03/02 10:37:52;;;;;;;1999.90;999.90;;;9.00;99.90;;;;;;5055198;28;20404;-80
2024/03/02 10:40:22;;;;;;;1999.90;999.90;;;9.00;99.90;;;;;;5060203;28;20017;-80
2024/03/02 10:42:49;;;;;;;1999.90;999.90;;;9.10;99.90;;;;;;5054114;28;20021;-80
2024/03/02 10:45:16;;;;;;;1999.90;999.90;;;9.20;99.90;;;;;;5054015;28;20037;-80
2024/03/02 10:47:44;;;;;;;1999.90;999.90;;;9.30;99.90;;;;;;5057145;28;20025;-79
2024/03/02 10:50:10;;;;;;;1999.90;999.90;;;9.20;99.90;;;;;;5053853;28;20025;-80
2024/03/02 10:52:36;;;;;;;1999.90;999.90;;;9.30;99.90;;;;;;5055219;28;20040;-80
2024/03/02 10:55:05;;;;;;;1999.90;999.90;;;9.40;99.90;;;;;;5060743;28;20075;-80
2024/03/02 10:57:41;;;;;;;1999.90;999.90;;;9.40;99.90;;;;;;5053982;28;20049;-80
2024/03/02 11:00:14;;;;;;;1999.90;999.90;;;9.40;99.90;;;;;;5056572;28;20400;-80
2024/03/02 11:02:46;;;;;;;1999.90;999.90;;;9.40;99.90;;;;;;5056110;28;20029;-80
2024/03/02 11:05:13;;;;;;;1999.90;999.90;;;9.40;99.90;;;;;;5053713;28;20033;-80
2024/03/02 11:07:40;;;;;;;1999.90;999.90;;;9.40;99.90;;;;;;5058803;28;20350;-80
2024/03/02 11:10:08;;;;;;;1999.90;999.90;;;9.50;99.90;;;;;;5053893;28;20028;-80
2024/03/02 11:12:52;;;;;;;1999.90;999.90;;;9.50;99.90;;;;;;5055530;28;20032;-80
2024/03/02 11:15:19;;;;;;;1999.90;999.90;;;9.60;99.90;;;;;;5062284;28;20107;-80
2024/03/02 11:17:46;;;;;;;1999.90;999.90;;;9.50;99.90;;;;;;5052747;28;20036;-80
2024/03/02 11:20:12;;;;;;;1999.90;999.90;;;9.60;99.90;;;;;;5056740;28;20103;-80
2024/03/02 11:22:38;;;;;;;1999.90;999.90;;;9.50;99.90;;;;;;5055026;28;20510;-80
2024/03/02 11:25:05;;;;;;;1999.90;999.90;;;9.50;99.90;;;;;;5053215;28;20029;-80
2024/03/02 11:27:45;;;;;;;1999.90;999.90;;;9.50;99.90;;;;;;5060917;28;20045;-79
2024/03/02 11:30:33;;;;;;;1999.90;999.90;;;9.50;99.90;;;;;;5033158;28;20029;-80
2024/03/02 11:33:00;;;;;;;1999.90;999.90;;;9.40;99.90;;;;;;5033392;28;20053;-80
2024/03/02 11:35:28;;;;;;;1999.90;999.90;;;9.40;99.90;;;;;;5051131;28;20032;-79
2024/03/02 11:37:54;;;;;;;1999.90;999.90;;;9.40;99.90;;;;;;5040123;28;20035;-80
2024/03/02 11:40:23;;;;;;;1999.90;999.90;;;9.40;99.90;;;;;;5034736;28;20248;-80
2024/03/02 11:42:49;;;;;;;1999.90;999.90;;;9.40;99.90;;;;;;5034497;28;20078;-80
2024/03/02 11:45:23;;;;;;;1999.90;999.90;;;9.50;99.90;;;;;;5032943;28;20022;-81
2024/03/02 11:47:54;;;;;;;1999.90;999.90;;;9.40;99.90;;;;;;5033101;28;20030;-80
2024/03/02 11:50:30;;;;;;;1999.90;999.90;;;9.50;99.90;;;;;;5040040;28;20499;-80
2024/03/02 11:52:57;;;;;;;1999.90;999.90;;;9.50;99.90;;;;;;5031349;28;20030;-80
2024/03/02 11:55:25;;;;;;;1999.90;999.90;;;9.40;99.90;;;;;;5032970;28;20507;-80
2024/03/02 11:57:52;;;;;;;1999.90;999.90;;;9.40;99.90;;;;;;5043721;28;20072;-80
2024/03/02 12:00:19;;;;;;;1999.90;999.90;;;9.50;99.90;;;;;;5032768;28;20026;-80
2024/03/02 12:02:49;;;;;;;1999.90;999.90;;;9.50;99.90;;;;;;5034267;28;20025;-80
2024/03/02 12:05:16;;;;;;;1999.90;999.90;;;9.50;99.90;;;;;;5042487;28;20037;-80
2024/03/02 12:07:43;;;;;;;1999.90;999.90;;;9.50;99.90;;;;;;5033786;28;20480;-80
2024/03/02 12:10:09;;;;;;;1999.90;999.90;;;9.50;99.90;;;;;;5031962;28;20029;-80
2024/03/02 12:12:34;;;;;;;1999.90;999.90;;;9.60;99.90;;;;;;5034047;28;20032;-79
2024/03/02 12:15:00;;;;;;;1999.90;999.90;;;9.70;99.90;;;;;;5037124;28;20496;-80